EPGD

Gdańsk Lech Wałęsa Airport

Gdańsk, Poland
METAR EPGD 201400Z 29018KT 9999 FEW032 24/16 Q1011
Observed Flight Rules
Jul-20 @ 14:00 UTC (25 minutes ago) Visual Flight Rules
Wind Visibility Clouds
290° at 18 knots 10,000+ meters
  • Few at 3,200' AGL
Temperatures Readings
Current 24°C / 75°F
Dewpoint 16°C / 61°F
Humidity 61%
Altimeter 29.85" Hg
Pressure 1011 hPa
Elevation 138
METAR EPGD 201400Z 29018KT 9999 FEW032 24/16 Q1011
Observed Flight Rules
Jul-20 @ 14:00 UTC
(25 minutes ago)
VFR
Wind Visibility
290° at 18 knots 10,000+ meters
Clouds
  • Few at 3,200' AGL
Temperature Dewpoint
24°C / 75°F 16°C / 61°F
Humidity Altimeter Pressure
61% 29.85" Hg 1011 hPa